sensor_id;sensor_type;location;lat;lon;timestamp;temperature;humidity
34434;DHT22;34290;48.562;13.384;2023-04-12T00:07:56;-0.20;99.90
34434;DHT22;34290;48.562;13.384;2023-04-12T00:10:25;-0.20;99.90
34434;DHT22;34290;48.562;13.384;2023-04-12T00:12:52;-0.20;99.90
34434;DHT22;34290;48.562;13.384;2023-04-12T00:15:19;-0.30;99.90
34434;DHT22;34290;48.562;13.384;2023-04-12T00:20:14;-0.30;99.90
34434;DHT22;34290;48.562;13.384;2023-04-12T00:22:41;-0.40;99.90
34434;DHT22;34290;48.562;13.384;2023-04-12T00:25:10;-0.50;99.90
34434;DHT22;34290;48.562;13.384;2023-04-12T00:27:37;-0.10;99.90
34434;DHT22;34290;48.562;13.384;2023-04-12T00:32:32;-0.30;99.90
34434;DHT22;34290;48.562;13.384;2023-04-12T00:37:26;-0.40;99.90
34434;DHT22;34290;48.562;13.384;2023-04-12T00:42:21;-0.50;99.90
34434;DHT22;34290;48.562;13.384;2023-04-12T00:47:16;-0.40;99.90
34434;DHT22;34290;48.562;13.384;2023-04-12T00:52:12;-0.30;99.90
34434;DHT22;34290;48.562;13.384;2023-04-12T00:57:08;-0.20;99.90
34434;DHT22;34290;48.562;13.384;2023-04-12T00:59:36;0.00;99.90
34434;DHT22;34290;48.562;13.384;2023-04-12T01:07:09;0.20;99.90
34434;DHT22;34290;48.562;13.384;2023-04-12T01:09:48;0.30;99.90
34434;DHT22;34290;48.562;13.384;2023-04-12T01:12:28;0.30;99.90
34434;DHT22;34290;48.562;13.384;2023-04-12T01:15:04;0.40;99.90
34434;DHT22;34290;48.562;13.384;2023-04-12T01:20:05;0.30;99.90
34434;DHT22;34290;48.562;13.384;2023-04-12T01:30:49;0.30;99.90
34434;DHT22;34290;48.562;13.384;2023-04-12T01:33:17;0.30;99.90
34434;DHT22;34290;48.562;13.384;2023-04-12T01:35:45;0.50;99.90
34434;DHT22;34290;48.562;13.384;2023-04-12T01:40:40;0.60;99.90
34434;DHT22;34290;48.562;13.384;2023-04-12T01:43:08;0.70;99.90
34434;DHT22;34290;48.562;13.384;2023-04-12T01:48:08;0.80;99.90
34434;DHT22;34290;48.562;13.384;2023-04-12T01:50:42;0.80;99.90
34434;DHT22;34290;48.562;13.384;2023-04-12T01:55:46;0.90;99.90
34434;DHT22;34290;48.562;13.384;2023-04-12T01:58:21;0.80;99.90
34434;DHT22;34290;48.562;13.384;2023-04-12T02:05:46;0.90;99.90
34434;DHT22;34290;48.562;13.384;2023-04-12T02:10:40;0.90;99.90
34434;DHT22;34290;48.562;13.384;2023-04-12T02:15:34;0.90;99.90
34434;DHT22;34290;48.562;13.384;2023-04-12T02:18:04;0.90;99.90
34434;DHT22;34290;48.562;13.384;2023-04-12T02:25:27;1.00;99.90
34434;DHT22;34290;48.562;13.384;2023-04-12T02:30:21;1.10;99.90
34434;DHT22;34290;48.562;13.384;2023-04-12T02:35:17;1.10;99.90
34434;DHT22;34290;48.562;13.384;2023-04-12T02:40:13;0.80;99.90
34434;DHT22;34290;48.562;13.384;2023-04-12T02:47:36;0.70;99.90
34434;DHT22;34290;48.562;13.384;2023-04-12T02:52:34;0.60;99.90
34434;DHT22;34290;48.562;13.384;2023-04-12T02:57:28;0.70;99.90
34434;DHT22;34290;48.562;13.384;2023-04-12T03:02:22;0.70;99.90
34434;DHT22;34290;48.562;13.384;2023-04-12T03:07:18;0.60;99.90
34434;DHT22;34290;48.562;13.384;2023-04-12T03:09:48;0.60;99.90
34434;DHT22;34290;48.562;13.384;2023-04-12T03:14:42;0.50;99.90
34434;DHT22;34290;48.562;13.384;2023-04-12T03:17:09;0.50;99.90
34434;DHT22;34290;48.562;13.384;2023-04-12T03:19:36;0.50;99.90
34434;DHT22;34290;48.562;13.384;2023-04-12T03:27:01;0.60;99.90
34434;DHT22;34290;48.562;13.384;2023-04-12T03:29:29;0.70;99.90
34434;DHT22;34290;48.562;13.384;2023-04-12T03:39:19;0.70;99.90
34434;DHT22;34290;48.562;13.384;2023-04-12T03:44:15;0.70;99.90
34434;DHT22;34290;48.562;13.384;2023-04-12T03:46:42;0.70;99.90
34434;DHT22;34290;48.562;13.384;2023-04-12T03:49:09;0.70;99.90
34434;DHT22;34290;48.562;13.384;2023-04-12T03:54:07;0.70;99.90
34434;DHT22;34290;48.562;13.384;2023-04-12T04:01:32;0.60;99.90
34434;DHT22;34290;48.562;13.384;2023-04-12T04:06:26;0.60;99.90
34434;DHT22;34290;48.562;13.384;2023-04-12T04:08:54;0.70;99.90
34434;DHT22;34290;48.562;13.384;2023-04-12T04:16:16;0.60;99.90
34434;DHT22;34290;48.562;13.384;2023-04-12T04:18:45;0.60;99.90
34434;DHT22;34290;48.562;13.384;2023-04-12T04:31:07;0.60;99.90
34434;DHT22;34290;48.562;13.384;2023-04-12T04:55:56;0.70;99.90
34434;DHT22;34290;48.562;13.384;2023-04-12T05:03:22;0.90;99.90
34434;DHT22;34290;48.562;13.384;2023-04-12T05:05:53;1.10;99.90
34434;DHT22;34290;48.562;13.384;2023-04-12T05:10:50;1.20;99.90
34434;DHT22;34290;48.562;13.384;2023-04-12T05:13:17;1.30;99.90
34434;DHT22;34290;48.562;13.384;2023-04-12T05:15:44;1.30;99.90
34434;DHT22;34290;48.562;13.384;2023-04-12T05:18:12;1.30;99.90
34434;DHT22;34290;48.562;13.384;2023-04-12T05:20:39;1.40;99.90
34434;DHT22;34290;48.562;13.384;2023-04-12T05:25:34;1.40;99.90
34434;DHT22;34290;48.562;13.384;2023-04-12T05:30:29;1.60;99.90
34434;DHT22;34290;48.562;13.384;2023-04-12T05:35:23;1.60;99.90
34434;DHT22;34290;48.562;13.384;2023-04-12T05:40:17;1.70;99.90
34434;DHT22;34290;48.562;13.384;2023-04-12T05:42:46;1.80;99.90
34434;DHT22;34290;48.562;13.384;2023-04-12T05:45:13;1.90;99.90
34434;DHT22;34290;48.562;13.384;2023-04-12T05:47:40;2.00;99.90
34434;DHT22;34290;48.562;13.384;2023-04-12T05:50:07;2.00;99.90
34434;DHT22;34290;48.562;13.384;2023-04-12T05:52:35;2.00;99.90
34434;DHT22;34290;48.562;13.384;2023-04-12T05:55:03;2.20;99.90
34434;DHT22;34290;48.562;13.384;2023-04-12T05:57:30;2.20;99.90
34434;DHT22;34290;48.562;13.384;2023-04-12T05:59:59;2.40;99.90
34434;DHT22;34290;48.562;13.384;2023-04-12T06:07:21;2.80;99.90
34434;DHT22;34290;48.562;13.384;2023-04-12T06:09:48;3.00;99.90
34434;DHT22;34290;48.562;13.384;2023-04-12T06:12:15;3.00;99.90
34434;DHT22;34290;48.562;13.384;2023-04-12T06:14:42;3.00;99.90
34434;DHT22;34290;48.562;13.384;2023-04-12T06:17:10;3.00;99.90
34434;DHT22;34290;48.562;13.384;2023-04-12T06:19:37;3.30;99.90
34434;DHT22;34290;48.562;13.384;2023-04-12T06:22:04;3.40;99.90
34434;DHT22;34290;48.562;13.384;2023-04-12T06:24:31;3.70;99.90
34434;DHT22;34290;48.562;13.384;2023-04-12T06:29:25;3.70;99.90
34434;DHT22;34290;48.562;13.384;2023-04-12T06:31:52;3.90;99.90
34434;DHT22;34290;48.562;13.384;2023-04-12T06:34:20;4.00;99.90
34434;DHT22;34290;48.562;13.384;2023-04-12T06:36:47;4.20;99.90
34434;DHT22;34290;48.562;13.384;2023-04-12T06:39:14;4.30;99.90
34434;DHT22;34290;48.562;13.384;2023-04-12T06:41:41;4.30;99.90
34434;DHT22;34290;48.562;13.384;2023-04-12T06:44:12;4.70;99.90
34434;DHT22;34290;48.562;13.384;2023-04-12T06:46:39;5.30;99.90
34434;DHT22;34290;48.562;13.384;2023-04-12T06:49:06;5.80;99.90
34434;DHT22;34290;48.562;13.384;2023-04-12T06:51:34;6.10;99.90
34434;DHT22;34290;48.562;13.384;2023-04-12T06:54:03;6.20;99.90
34434;DHT22;34290;48.562;13.384;2023-04-12T06:56:30;6.20;99.90
34434;DHT22;34290;48.562;13.384;2023-04-12T06:58:57;6.40;99.90
34434;DHT22;34290;48.562;13.384;2023-04-12T07:01:24;6.50;99.90
34434;DHT22;34290;48.562;13.384;2023-04-12T07:06:18;6.50;99.90
34434;DHT22;34290;48.562;13.384;2023-04-12T07:08:47;7.00;99.90
34434;DHT22;34290;48.562;13.384;2023-04-12T07:11:14;7.60;99.90
34434;DHT22;34290;48.562;13.384;2023-04-12T07:13:41;7.90;99.90
34434;DHT22;34290;48.562;13.384;2023-04-12T07:16:08;7.90;99.90
34434;DHT22;34290;48.562;13.384;2023-04-12T07:18:35;9.10;99.90
34434;DHT22;34290;48.562;13.384;2023-04-12T07:21:05;9.10;99.90
34434;DHT22;34290;48.562;13.384;2023-04-12T07:23:32;9.60;99.90
34434;DHT22;34290;48.562;13.384;2023-04-12T07:26:01;9.40;99.90
34434;DHT22;34290;48.562;13.384;2023-04-12T07:28:28;9.00;99.90
34434;DHT22;34290;48.562;13.384;2023-04-12T07:30:55;9.60;99.90
34434;DHT22;34290;48.562;13.384;2023-04-12T07:33:24;10.20;99.90
34434;DHT22;34290;48.562;13.384;2023-04-12T07:35:51;10.10;99.90
34434;DHT22;34290;48.562;13.384;2023-04-12T07:38:18;9.90;99.90
34434;DHT22;34290;48.562;13.384;2023-04-12T07:40:44;9.80;99.90
34434;DHT22;34290;48.562;13.384;2023-04-12T07:43:15;9.60;99.90
34434;DHT22;34290;48.562;13.384;2023-04-12T07:48:09;9.70;99.90
34434;DHT22;34290;48.562;13.384;2023-04-12T07:53:19;10.40;99.90
34434;DHT22;34290;48.562;13.384;2023-04-12T07:55:47;10.70;99.90
34434;DHT22;34290;48.562;13.384;2023-04-12T07:58:16;10.90;99.90
34434;DHT22;34290;48.562;13.384;2023-04-12T08:00:44;10.90;99.90
34434;DHT22;34290;48.562;13.384;2023-04-12T08:03:11;11.00;99.90
34434;DHT22;34290;48.562;13.384;2023-04-12T08:05:42;11.60;99.90
34434;DHT22;34290;48.562;13.384;2023-04-12T08:08:10;12.20;99.90
34434;DHT22;34290;48.562;13.384;2023-04-12T08:10:38;12.20;99.90
34434;DHT22;34290;48.562;13.384;2023-04-12T08:13:05;13.10;99.90
34434;DHT22;34290;48.562;13.384;2023-04-12T08:15:34;13.20;99.90
34434;DHT22;34290;48.562;13.384;2023-04-12T08:18:01;13.20;99.90
34434;DHT22;34290;48.562;13.384;2023-04-12T08:20:29;13.90;99.90
34434;DHT22;34290;48.562;13.384;2023-04-12T08:22:56;14.40;99.90
34434;DHT22;34290;48.562;13.384;2023-04-12T08:25:23;14.20;99.90
34434;DHT22;34290;48.562;13.384;2023-04-12T08:27:50;13.60;99.90
34434;DHT22;34290;48.562;13.384;2023-04-12T08:30:17;13.20;99.90
34434;DHT22;34290;48.562;13.384;2023-04-12T08:32:46;13.10;99.90
34434;DHT22;34290;48.562;13.384;2023-04-12T08:35:13;13.10;99.90
34434;DHT22;34290;48.562;13.384;2023-04-12T08:37:40;12.90;99.90
34434;DHT22;34290;48.562;13.384;2023-04-12T08:40:08;13.00;99.90
34434;DHT22;34290;48.562;13.384;2023-04-12T08:42:36;13.40;99.90
34434;DHT22;34290;48.562;13.384;2023-04-12T08:45:04;14.30;99.90
34434;DHT22;34290;48.562;13.384;2023-04-12T08:47:32;14.60;99.90
34434;DHT22;34290;48.562;13.384;2023-04-12T08:50:01;14.00;99.90
34434;DHT22;34290;48.562;13.384;2023-04-12T08:52:32;13.20;99.90
34434;DHT22;34290;48.562;13.384;2023-04-12T08:55:01;12.80;99.90
34434;DHT22;34290;48.562;13.384;2023-04-12T08:57:29;12.40;99.90
34434;DHT22;34290;48.562;13.384;2023-04-12T08:59:58;12.10;99.90
34434;DHT22;34290;48.562;13.384;2023-04-12T09:02:26;11.70;99.90
34434;DHT22;34290;48.562;13.384;2023-04-12T09:04:53;11.80;99.90
34434;DHT22;34290;48.562;13.384;2023-04-12T09:07:22;11.60;99.90
34434;DHT22;34290;48.562;13.384;2023-04-12T09:09:53;11.20;99.90
34434;DHT22;34290;48.562;13.384;2023-04-12T09:12:20;11.30;99.90
34434;DHT22;34290;48.562;13.384;2023-04-12T09:15:04;11.30;99.90
34434;DHT22;34290;48.562;13.384;2023-04-12T09:17:33;11.50;99.90
34434;DHT22;34290;48.562;13.384;2023-04-12T09:22:34;11.20;99.90
34434;DHT22;34290;48.562;13.384;2023-04-12T09:25:02;11.20;99.90
34434;DHT22;34290;48.562;13.384;2023-04-12T09:30:06;11.20;99.90
34434;DHT22;34290;48.562;13.384;2023-04-12T09:35:01;10.80;99.90
34434;DHT22;34290;48.562;13.384;2023-04-12T09:37:32;10.80;99.90
34434;DHT22;34290;48.562;13.384;2023-04-12T09:40:00;10.90;99.90
34434;DHT22;34290;48.562;13.384;2023-04-12T09:44:56;10.60;99.90
34434;DHT22;34290;48.562;13.384;2023-04-12T09:47:27;10.60;99.90
34434;DHT22;34290;48.562;13.384;2023-04-12T09:52:36;11.20;99.90
34434;DHT22;34290;48.562;13.384;2023-04-12T09:55:07;11.50;99.90
34434;DHT22;34290;48.562;13.384;2023-04-12T09:57:37;11.50;99.90
34434;DHT22;34290;48.562;13.384;2023-04-12T10:00:06;11.50;99.90
34434;DHT22;34290;48.562;13.384;2023-04-12T10:02:37;11.60;99.90
34434;DHT22;34290;48.562;13.384;2023-04-12T10:05:06;12.00;99.90
34434;DHT22;34290;48.562;13.384;2023-04-12T10:07:36;12.30;99.90
34434;DHT22;34290;48.562;13.384;2023-04-12T10:10:07;12.40;99.90
34434;DHT22;34290;48.562;13.384;2023-04-12T10:12:35;12.40;99.90
34434;DHT22;34290;48.562;13.384;2023-04-12T10:15:04;12.00;99.90
34434;DHT22;34290;48.562;13.384;2023-04-12T10:17:33;11.90;99.90
34434;DHT22;34290;48.562;13.384;2023-04-12T10:20:01;11.80;99.90
34434;DHT22;34290;48.562;13.384;2023-04-12T10:22:28;11.90;99.90
34434;DHT22;34290;48.562;13.384;2023-04-12T10:24:58;11.90;99.90
34434;DHT22;34290;48.562;13.384;2023-04-12T10:27:25;11.70;99.90
34434;DHT22;34290;48.562;13.384;2023-04-12T10:29:53;11.60;99.90
34434;DHT22;34290;48.562;13.384;2023-04-12T10:32:21;11.20;99.90
34434;DHT22;34290;48.562;13.384;2023-04-12T10:34:52;10.90;99.90
34434;DHT22;34290;48.562;13.384;2023-04-12T10:40:15;11.10;99.90
34434;DHT22;34290;48.562;13.384;2023-04-12T10:42:43;10.90;99.90
34434;DHT22;34290;48.562;13.384;2023-04-12T10:45:35;10.80;99.90
34434;DHT22;34290;48.562;13.384;2023-04-12T10:48:02;10.80;99.90
34434;DHT22;34290;48.562;13.384;2023-04-12T10:50:32;10.70;99.90
34434;DHT22;34290;48.562;13.384;2023-04-12T10:53:29;10.80;99.90
34434;DHT22;34290;48.562;13.384;2023-04-12T10:55:58;10.80;99.90
34434;DHT22;34290;48.562;13.384;2023-04-12T10:58:58;10.90;99.90
34434;DHT22;34290;48.562;13.384;2023-04-12T11:01:26;11.10;99.90
34434;DHT22;34290;48.562;13.384;2023-04-12T11:04:10;11.30;99.90
34434;DHT22;34290;48.562;13.384;2023-04-12T11:06:57;11.50;99.90
34434;DHT22;34290;48.562;13.384;2023-04-12T11:09:27;11.40;99.90
34434;DHT22;34290;48.562;13.384;2023-04-12T11:12:10;11.50;99.90
34434;DHT22;34290;48.562;13.384;2023-04-12T11:14:43;11.20;99.90
34434;DHT22;34290;48.562;13.384;2023-04-12T11:17:21;11.10;99.90
34434;DHT22;34290;48.562;13.384;2023-04-12T11:19:51;11.10;99.90
34434;DHT22;34290;48.562;13.384;2023-04-12T11:22:19;10.90;99.90
34434;DHT22;34290;48.562;13.384;2023-04-12T11:24:48;10.80;99.90
34434;DHT22;34290;48.562;13.384;2023-04-12T11:27:18;11.10;99.90
34434;DHT22;34290;48.562;13.384;2023-04-12T11:29:48;11.20;99.90
34434;DHT22;34290;48.562;13.384;2023-04-12T11:32:15;11.40;99.90
34434;DHT22;34290;48.562;13.384;2023-04-12T11:34:44;11.30;99.90
34434;DHT22;34290;48.562;13.384;2023-04-12T11:39:40;11.20;99.90
34434;DHT22;34290;48.562;13.384;2023-04-12T11:42:12;11.00;99.90
34434;DHT22;34290;48.562;13.384;2023-04-12T11:44:42;11.10;99.90
34434;DHT22;34290;48.562;13.384;2023-04-12T11:47:14;11.10;99.90
34434;DHT22;34290;48.562;13.384;2023-04-12T11:49:46;11.40;99.90
34434;DHT22;34290;48.562;13.384;2023-04-12T11:52:14;11.30;99.90
34434;DHT22;34290;48.562;13.384;2023-04-12T11:54:43;11.20;99.90
34434;DHT22;34290;48.562;13.384;2023-04-12T11:57:14;11.10;99.90
34434;DHT22;34290;48.562;13.384;2023-04-12T11:59:44;10.80;99.90
34434;DHT22;34290;48.562;13.384;2023-04-12T12:02:12;10.70;99.90
34434;DHT22;34290;48.562;13.384;2023-04-12T12:04:43;10.50;99.90
34434;DHT22;34290;48.562;13.384;2023-04-12T12:07:11;10.60;99.90
34434;DHT22;34290;48.562;13.384;2023-04-12T12:12:06;11.10;99.90
34434;DHT22;34290;48.562;13.384;2023-04-12T12:14:34;11.20;99.90
34434;DHT22;34290;48.562;13.384;2023-04-12T12:17:09;11.20;99.90
34434;DHT22;34290;48.562;13.384;2023-04-12T12:19:37;11.20;99.90
34434;DHT22;34290;48.562;13.384;2023-04-12T12:22:06;11.10;99.90
34434;DHT22;34290;48.562;13.384;2023-04-12T12:24:35;11.00;99.90
34434;DHT22;34290;48.562;13.384;2023-04-12T12:27:02;11.00;99.90
34434;DHT22;34290;48.562;13.384;2023-04-12T12:29:36;10.90;99.90
34434;DHT22;34290;48.562;13.384;2023-04-12T12:32:10;10.70;99.90
34434;DHT22;34290;48.562;13.384;2023-04-12T12:34:39;10.80;99.90
34434;DHT22;34290;48.562;13.384;2023-04-12T12:37:12;10.90;99.90
34434;DHT22;34290;48.562;13.384;2023-04-12T12:39:45;10.90;99.90
34434;DHT22;34290;48.562;13.384;2023-04-12T12:42:25;11.00;99.90
34434;DHT22;34290;48.562;13.384;2023-04-12T12:44:52;11.10;99.90
34434;DHT22;34290;48.562;13.384;2023-04-12T12:47:20;11.10;99.90
34434;DHT22;34290;48.562;13.384;2023-04-12T12:52:15;11.30;99.90
34434;DHT22;34290;48.562;13.384;2023-04-12T12:57:09;11.30;99.90
34434;DHT22;34290;48.562;13.384;2023-04-12T13:02:03;11.50;99.90
34434;DHT22;34290;48.562;13.384;2023-04-12T13:04:33;11.60;99.90
34434;DHT22;34290;48.562;13.384;2023-04-12T13:09:27;11.40;99.90
34434;DHT22;34290;48.562;13.384;2023-04-12T13:14:21;11.50;99.90
34434;DHT22;34290;48.562;13.384;2023-04-12T13:19:16;11.90;99.90
34434;DHT22;34290;48.562;13.384;2023-04-12T13:21:44;11.90;99.90
34434;DHT22;34290;48.562;13.384;2023-04-12T13:24:11;11.70;99.90
34434;DHT22;34290;48.562;13.384;2023-04-12T13:29:06;11.70;99.90
34434;DHT22;34290;48.562;13.384;2023-04-12T13:31:33;11.70;99.90
34434;DHT22;34290;48.562;13.384;2023-04-12T13:34:00;11.80;99.90
34434;DHT22;34290;48.562;13.384;2023-04-12T13:38:56;11.90;99.90
34434;DHT22;34290;48.562;13.384;2023-04-12T13:41:24;12.10;99.90
34434;DHT22;34290;48.562;13.384;2023-04-12T13:43:51;12.20;99.90
34434;DHT22;34290;48.562;13.384;2023-04-12T13:46:19;12.30;99.90
34434;DHT22;34290;48.562;13.384;2023-04-12T13:48:46;12.50;99.90
34434;DHT22;34290;48.562;13.384;2023-04-12T13:51:13;12.50;99.90
34434;DHT22;34290;48.562;13.384;2023-04-12T13:53:40;12.50;99.90
34434;DHT22;34290;48.562;13.384;2023-04-12T13:56:08;12.50;99.90
34434;DHT22;34290;48.562;13.384;2023-04-12T13:58:36;12.60;99.90
34434;DHT22;34290;48.562;13.384;2023-04-12T14:01:04;12.50;99.90
34434;DHT22;34290;48.562;13.384;2023-04-12T14:03:32;12.50;99.90
34434;DHT22;34290;48.562;13.384;2023-04-12T14:06:02;12.40;99.90
34434;DHT22;34290;48.562;13.384;2023-04-12T14:08:29;12.20;99.90
34434;DHT22;34290;48.562;13.384;2023-04-12T14:10:56;12.00;99.90
34434;DHT22;34290;48.562;13.384;2023-04-12T14:13:25;12.00;99.90
34434;DHT22;34290;48.562;13.384;2023-04-12T14:15:53;11.80;99.90
34434;DHT22;34290;48.562;13.384;2023-04-12T14:20:47;11.70;99.90
34434;DHT22;34290;48.562;13.384;2023-04-12T14:23:17;11.60;99.90
34434;DHT22;34290;48.562;13.384;2023-04-12T14:25:44;11.90;99.90
34434;DHT22;34290;48.562;13.384;2023-04-12T14:28:11;12.00;99.90
34434;DHT22;34290;48.562;13.384;2023-04-12T14:30:42;12.20;99.90
34434;DHT22;34290;48.562;13.384;2023-04-12T14:33:09;12.30;99.90
34434;DHT22;34290;48.562;13.384;2023-04-12T14:35:37;12.40;99.90
34434;DHT22;34290;48.562;13.384;2023-04-12T14:38:04;12.40;99.90
34434;DHT22;34290;48.562;13.384;2023-04-12T14:42:58;12.50;99.90
34434;DHT22;34290;48.562;13.384;2023-04-12T14:47:54;12.20;99.90
34434;DHT22;34290;48.562;13.384;2023-04-12T14:52:48;12.00;99.90
34434;DHT22;34290;48.562;13.384;2023-04-12T14:57:43;11.80;99.90
34434;DHT22;34290;48.562;13.384;2023-04-12T15:00:10;11.60;99.90
34434;DHT22;34290;48.562;13.384;2023-04-12T15:02:41;11.50;99.90
34434;DHT22;34290;48.562;13.384;2023-04-12T15:05:10;11.40;99.90
34434;DHT22;34290;48.562;13.384;2023-04-12T15:07:37;11.40;99.90
34434;DHT22;34290;48.562;13.384;2023-04-12T15:10:05;11.30;99.90
34434;DHT22;34290;48.562;13.384;2023-04-12T15:15:00;11.10;99.90
34434;DHT22;34290;48.562;13.384;2023-04-12T15:17:28;11.00;99.90
34434;DHT22;34290;48.562;13.384;2023-04-12T15:19:56;11.00;99.90
34434;DHT22;34290;48.562;13.384;2023-04-12T15:22:25;11.20;99.90
34434;DHT22;34290;48.562;13.384;2023-04-12T15:24:55;11.40;99.90
34434;DHT22;34290;48.562;13.384;2023-04-12T15:29:49;11.50;99.90
34434;DHT22;34290;48.562;13.384;2023-04-12T15:32:17;11.60;99.90
34434;DHT22;34290;48.562;13.384;2023-04-12T15:34:44;11.70;99.90
34434;DHT22;34290;48.562;13.384;2023-04-12T15:37:11;11.80;99.90
34434;DHT22;34290;48.562;13.384;2023-04-12T15:39:39;11.80;99.90
34434;DHT22;34290;48.562;13.384;2023-04-12T15:44:34;11.70;99.90
34434;DHT22;34290;48.562;13.384;2023-04-12T15:49:30;11.70;99.90
34434;DHT22;34290;48.562;13.384;2023-04-12T15:51:57;11.60;99.90
34434;DHT22;34290;48.562;13.384;2023-04-12T15:54:24;11.50;99.90
34434;DHT22;34290;48.562;13.384;2023-04-12T15:56:53;11.50;99.90
34434;DHT22;34290;48.562;13.384;2023-04-12T15:59:20;11.40;99.90
34434;DHT22;34290;48.562;13.384;2023-04-12T16:01:47;11.50;99.90
34434;DHT22;34290;48.562;13.384;2023-04-12T16:04:14;11.50;99.90
34434;DHT22;34290;48.562;13.384;2023-04-12T16:06:42;11.40;99.90
34434;DHT22;34290;48.562;13.384;2023-04-12T16:09:10;11.40;99.90
34434;DHT22;34290;48.562;13.384;2023-04-12T16:11:37;11.40;99.90
34434;DHT22;34290;48.562;13.384;2023-04-12T16:14:06;11.40;99.90
34434;DHT22;34290;48.562;13.384;2023-04-12T16:19:01;11.50;99.90
34434;DHT22;34290;48.562;13.384;2023-04-12T16:23:55;11.60;99.90
34434;DHT22;34290;48.562;13.384;2023-04-12T16:28:50;11.70;99.90
34434;DHT22;34290;48.562;13.384;2023-04-12T16:31:20;11.60;99.90
34434;DHT22;34290;48.562;13.384;2023-04-12T16:33:47;11.60;99.90
34434;DHT22;34290;48.562;13.384;2023-04-12T16:36:15;11.60;99.90
34434;DHT22;34290;48.562;13.384;2023-04-12T16:43:38;11.40;99.90
34434;DHT22;34290;48.562;13.384;2023-04-12T16:46:05;11.40;99.90
34434;DHT22;34290;48.562;13.384;2023-04-12T16:48:33;11.40;99.90
34434;DHT22;34290;48.562;13.384;2023-04-12T16:51:03;11.30;99.90
34434;DHT22;34290;48.562;13.384;2023-04-12T16:55:59;11.10;99.90
34434;DHT22;34290;48.562;13.384;2023-04-12T17:03:22;11.00;99.90
34434;DHT22;34290;48.562;13.384;2023-04-12T17:05:51;11.00;99.90
34434;DHT22;34290;48.562;13.384;2023-04-12T17:08:18;11.00;99.90
34434;DHT22;34290;48.562;13.384;2023-04-12T17:10:45;10.90;99.90
34434;DHT22;34290;48.562;13.384;2023-04-12T17:13:14;10.90;99.90
34434;DHT22;34290;48.562;13.384;2023-04-12T17:15:41;10.80;99.90
34434;DHT22;34290;48.562;13.384;2023-04-12T17:18:08;10.80;99.90
34434;DHT22;34290;48.562;13.384;2023-04-12T17:20:35;10.60;99.90
34434;DHT22;34290;48.562;13.384;2023-04-12T17:23:04;10.60;99.90
34434;DHT22;34290;48.562;13.384;2023-04-12T17:25:31;10.60;99.90
34434;DHT22;34290;48.562;13.384;2023-04-12T17:27:58;10.50;99.90
34434;DHT22;34290;48.562;13.384;2023-04-12T17:30:26;10.50;99.90
34434;DHT22;34290;48.562;13.384;2023-04-12T17:32:53;10.50;99.90
34434;DHT22;34290;48.562;13.384;2023-04-12T17:35:21;10.40;99.90
34434;DHT22;34290;48.562;13.384;2023-04-12T17:37:48;10.40;99.90
34434;DHT22;34290;48.562;13.384;2023-04-12T17:40:17;10.30;99.90
34434;DHT22;34290;48.562;13.384;2023-04-12T17:42:44;10.20;99.90
34434;DHT22;34290;48.562;13.384;2023-04-12T17:45:11;10.20;99.90
34434;DHT22;34290;48.562;13.384;2023-04-12T17:47:39;10.20;99.90
34434;DHT22;34290;48.562;13.384;2023-04-12T17:50:08;10.10;99.90
34434;DHT22;34290;48.562;13.384;2023-04-12T17:52:36;10.10;99.90
34434;DHT22;34290;48.562;13.384;2023-04-12T17:55:03;10.00;99.90
34434;DHT22;34290;48.562;13.384;2023-04-12T17:57:32;9.90;99.90
34434;DHT22;34290;48.562;13.384;2023-04-12T17:59:59;9.70;99.90
34434;DHT22;34290;48.562;13.384;2023-04-12T18:02:26;9.70;99.90
34434;DHT22;34290;48.562;13.384;2023-04-12T18:07:20;9.40;99.90
34434;DHT22;34290;48.562;13.384;2023-04-12T18:14:44;9.20;99.90
34434;DHT22;34290;48.562;13.384;2023-04-12T18:17:11;9.00;99.90
34434;DHT22;34290;48.562;13.384;2023-04-12T18:19:38;8.90;99.90
34434;DHT22;34290;48.562;13.384;2023-04-12T18:22:05;8.90;99.90
34434;DHT22;34290;48.562;13.384;2023-04-12T18:24:32;8.90;99.90
34434;DHT22;34290;48.562;13.384;2023-04-12T18:26:59;8.90;99.90
34434;DHT22;34290;48.562;13.384;2023-04-12T18:31:55;8.80;99.90
34434;DHT22;34290;48.562;13.384;2023-04-12T18:36:49;8.60;99.90
34434;DHT22;34290;48.562;13.384;2023-04-12T18:41:45;8.50;99.90
34434;DHT22;34290;48.562;13.384;2023-04-12T18:44:12;8.50;99.90
34434;DHT22;34290;48.562;13.384;2023-04-12T18:46:40;8.40;99.90
34434;DHT22;34290;48.562;13.384;2023-04-12T18:49:08;8.20;99.90
34434;DHT22;34290;48.562;13.384;2023-04-12T18:51:36;8.20;99.90
34434;DHT22;34290;48.562;13.384;2023-04-12T18:54:03;8.10;99.90
34434;DHT22;34290;48.562;13.384;2023-04-12T19:01:28;8.00;99.90
34434;DHT22;34290;48.562;13.384;2023-04-12T19:11:20;7.80;99.90
34434;DHT22;34290;48.562;13.384;2023-04-12T19:18:42;7.60;99.90
34434;DHT22;34290;48.562;13.384;2023-04-12T19:26:05;7.40;99.90
34434;DHT22;34290;48.562;13.384;2023-04-12T19:31:02;7.30;99.90
34434;DHT22;34290;48.562;13.384;2023-04-12T19:35:57;7.30;99.90
34434;DHT22;34290;48.562;13.384;2023-04-12T19:40:53;7.30;99.90
34434;DHT22;34290;48.562;13.384;2023-04-12T19:45:49;7.10;99.90
34434;DHT22;34290;48.562;13.384;2023-04-12T19:48:17;7.10;99.90
34434;DHT22;34290;48.562;13.384;2023-04-12T19:50:45;7.10;99.90
34434;DHT22;34290;48.562;13.384;2023-04-12T19:58:11;7.00;99.90
34434;DHT22;34290;48.562;13.384;2023-04-12T20:03:06;7.10;99.90
34434;DHT22;34290;48.562;13.384;2023-04-12T20:05:34;7.10;99.90
34434;DHT22;34290;48.562;13.384;2023-04-12T20:10:28;7.10;99.90
34434;DHT22;34290;48.562;13.384;2023-04-12T20:15:24;7.10;99.90
34434;DHT22;34290;48.562;13.384;2023-04-12T20:20:18;7.00;99.90
34434;DHT22;34290;48.562;13.384;2023-04-12T20:22:46;7.10;99.90
34434;DHT22;34290;48.562;13.384;2023-04-12T20:25:16;7.20;99.90
34434;DHT22;34290;48.562;13.384;2023-04-12T20:27:44;7.20;99.90
34434;DHT22;34290;48.562;13.384;2023-04-12T20:32:44;7.30;99.90
34434;DHT22;34290;48.562;13.384;2023-04-12T20:42:35;7.40;99.90
34434;DHT22;34290;48.562;13.384;2023-04-12T20:45:03;7.40;99.90
34434;DHT22;34290;48.562;13.384;2023-04-12T20:52:27;7.40;99.90
34434;DHT22;34290;48.562;13.384;2023-04-12T20:57:22;7.50;99.90
34434;DHT22;34290;48.562;13.384;2023-04-12T20:59:50;6.20;99.90
34434;DHT22;34290;48.562;13.384;2023-04-12T21:07:14;7.60;99.90
34434;DHT22;34290;48.562;13.384;2023-04-12T21:09:42;7.60;99.90
34434;DHT22;34290;48.562;13.384;2023-04-12T21:24:33;7.40;99.90
34434;DHT22;34290;48.562;13.384;2023-04-12T21:29:33;7.60;99.90
34434;DHT22;34290;48.562;13.384;2023-04-12T21:34:31;7.70;99.90